sensor_id;sensor_type;location;lat;lon;timestamp;temperature;humidity
13093;DHT22;6612;49.568;11.000;2022-07-01T00:00:42;26.90;44.60
13093;DHT22;6612;49.568;11.000;2022-07-01T00:03:08;26.80;44.80
13093;DHT22;6612;49.568;11.000;2022-07-01T00:05:35;26.80;45.00
13093;DHT22;6612;49.568;11.000;2022-07-01T00:08:03;26.70;45.20
13093;DHT22;6612;49.568;11.000;2022-07-01T00:10:30;26.70;45.30
13093;DHT22;6612;49.568;11.000;2022-07-01T00:12:59;26.60;45.50
13093;DHT22;6612;49.568;11.000;2022-07-01T00:15:26;26.60;45.70
13093;DHT22;6612;49.568;11.000;2022-07-01T00:17:52;26.50;45.70
13093;DHT22;6612;49.568;11.000;2022-07-01T00:20:19;26.50;45.90
13093;DHT22;6612;49.568;11.000;2022-07-01T00:22:47;26.50;46.10
13093;DHT22;6612;49.568;11.000;2022-07-01T00:25:14;26.40;46.10
13093;DHT22;6612;49.568;11.000;2022-07-01T00:27:41;26.40;46.30
13093;DHT22;6612;49.568;11.000;2022-07-01T00:30:10;26.30;47.00
13093;DHT22;6612;49.568;11.000;2022-07-01T00:32:37;26.30;46.70
13093;DHT22;6612;49.568;11.000;2022-07-01T00:35:05;26.30;46.60
13093;DHT22;6612;49.568;11.000;2022-07-01T00:37:32;26.20;46.70
13093;DHT22;6612;49.568;11.000;2022-07-01T00:39:59;26.20;46.70
13093;DHT22;6612;49.568;11.000;2022-07-01T00:42:26;26.10;46.90
13093;DHT22;6612;49.568;11.000;2022-07-01T00:44:53;26.10;47.00
13093;DHT22;6612;49.568;11.000;2022-07-01T00:47:21;26.10;47.10
13093;DHT22;6612;49.568;11.000;2022-07-01T00:49:49;26.00;47.40
13093;DHT22;6612;49.568;11.000;2022-07-01T00:52:16;26.00;47.30
13093;DHT22;6612;49.568;11.000;2022-07-01T00:54:43;26.00;47.40
13093;DHT22;6612;49.568;11.000;2022-07-01T00:57:11;25.90;48.10
13093;DHT22;6612;49.568;11.000;2022-07-01T00:59:39;25.90;47.50
13093;DHT22;6612;49.568;11.000;2022-07-01T01:02:07;25.90;47.60
13093;DHT22;6612;49.568;11.000;2022-07-01T01:04:35;25.90;47.80
13093;DHT22;6612;49.568;11.000;2022-07-01T01:07:03;25.90;47.90
13093;DHT22;6612;49.568;11.000;2022-07-01T01:09:30;25.90;47.80
13093;DHT22;6612;49.568;11.000;2022-07-01T01:11:58;25.80;47.60
13093;DHT22;6612;49.568;11.000;2022-07-01T01:14:25;25.90;47.70
13093;DHT22;6612;49.568;11.000;2022-07-01T01:16:52;25.80;47.50
13093;DHT22;6612;49.568;11.000;2022-07-01T01:19:19;25.80;47.50
13093;DHT22;6612;49.568;11.000;2022-07-01T01:21:48;25.80;47.40
13093;DHT22;6612;49.568;11.000;2022-07-01T01:24:15;25.70;47.30
13093;DHT22;6612;49.568;11.000;2022-07-01T01:26:42;25.70;47.20
13093;DHT22;6612;49.568;11.000;2022-07-01T01:29:08;25.60;47.20
13093;DHT22;6612;49.568;11.000;2022-07-01T01:31:35;25.60;47.20
13093;DHT22;6612;49.568;11.000;2022-07-01T01:34:02;25.50;47.20
13093;DHT22;6612;49.568;11.000;2022-07-01T01:36:29;25.40;47.30
13093;DHT22;6612;49.568;11.000;2022-07-01T01:38:58;25.40;47.30
13093;DHT22;6612;49.568;11.000;2022-07-01T01:41:28;25.40;47.40
13093;DHT22;6612;49.568;11.000;2022-07-01T01:43:55;25.30;47.20
13093;DHT22;6612;49.568;11.000;2022-07-01T01:46:21;25.30;47.20
13093;DHT22;6612;49.568;11.000;2022-07-01T01:48:48;25.20;47.10
13093;DHT22;6612;49.568;11.000;2022-07-01T01:51:15;25.20;47.20
13093;DHT22;6612;49.568;11.000;2022-07-01T01:53:44;25.10;47.30
13093;DHT22;6612;49.568;11.000;2022-07-01T01:56:12;25.10;47.30
13093;DHT22;6612;49.568;11.000;2022-07-01T01:58:39;25.00;47.50
13093;DHT22;6612;49.568;11.000;2022-07-01T02:01:08;25.00;47.60
13093;DHT22;6612;49.568;11.000;2022-07-01T02:03:35;24.90;47.60
13093;DHT22;6612;49.568;11.000;2022-07-01T02:06:03;24.90;47.80
13093;DHT22;6612;49.568;11.000;2022-07-01T02:08:30;24.80;47.70
13093;DHT22;6612;49.568;11.000;2022-07-01T02:10:57;24.80;47.90
13093;DHT22;6612;49.568;11.000;2022-07-01T02:13:25;24.70;47.90
13093;DHT22;6612;49.568;11.000;2022-07-01T02:15:52;24.70;48.20
13093;DHT22;6612;49.568;11.000;2022-07-01T02:18:19;24.70;48.20
13093;DHT22;6612;49.568;11.000;2022-07-01T02:20:46;24.70;48.30
13093;DHT22;6612;49.568;11.000;2022-07-01T02:23:13;24.60;48.30
13093;DHT22;6612;49.568;11.000;2022-07-01T02:25:40;24.60;48.40
13093;DHT22;6612;49.568;11.000;2022-07-01T02:28:08;24.60;48.40
13093;DHT22;6612;49.568;11.000;2022-07-01T02:30:36;24.60;48.50
13093;DHT22;6612;49.568;11.000;2022-07-01T02:33:03;24.60;48.60
13093;DHT22;6612;49.568;11.000;2022-07-01T02:35:31;24.60;48.60
13093;DHT22;6612;49.568;11.000;2022-07-01T02:37:58;24.60;48.70
13093;DHT22;6612;49.568;11.000;2022-07-01T02:40:25;24.50;48.70
13093;DHT22;6612;49.568;11.000;2022-07-01T02:42:52;24.50;48.80
13093;DHT22;6612;49.568;11.000;2022-07-01T02:45:19;24.50;48.90
13093;DHT22;6612;49.568;11.000;2022-07-01T02:47:47;24.50;49.10
13093;DHT22;6612;49.568;11.000;2022-07-01T02:50:14;24.50;49.30
13093;DHT22;6612;49.568;11.000;2022-07-01T02:52:42;24.50;49.30
13093;DHT22;6612;49.568;11.000;2022-07-01T02:55:11;24.50;49.40
13093;DHT22;6612;49.568;11.000;2022-07-01T02:57:39;24.40;49.60
13093;DHT22;6612;49.568;11.000;2022-07-01T03:00:07;24.40;49.50
13093;DHT22;6612;49.568;11.000;2022-07-01T03:02:35;24.40;49.60
13093;DHT22;6612;49.568;11.000;2022-07-01T03:05:04;24.30;49.60
13093;DHT22;6612;49.568;11.000;2022-07-01T03:07:31;24.30;49.90
13093;DHT22;6612;49.568;11.000;2022-07-01T03:10:00;24.30;49.80
13093;DHT22;6612;49.568;11.000;2022-07-01T03:12:27;24.20;49.70
13093;DHT22;6612;49.568;11.000;2022-07-01T03:14:55;24.20;49.80
13093;DHT22;6612;49.568;11.000;2022-07-01T03:17:23;24.20;50.00
13093;DHT22;6612;49.568;11.000;2022-07-01T03:19:50;24.10;50.00
13093;DHT22;6612;49.568;11.000;2022-07-01T03:22:20;24.10;50.20
13093;DHT22;6612;49.568;11.000;2022-07-01T03:24:48;24.10;50.30
13093;DHT22;6612;49.568;11.000;2022-07-01T03:27:15;24.00;50.20
13093;DHT22;6612;49.568;11.000;2022-07-01T03:29:42;24.00;50.20
13093;DHT22;6612;49.568;11.000;2022-07-01T03:32:09;24.00;50.20
13093;DHT22;6612;49.568;11.000;2022-07-01T03:34:36;24.00;50.30
13093;DHT22;6612;49.568;11.000;2022-07-01T03:37:03;24.00;50.30
13093;DHT22;6612;49.568;11.000;2022-07-01T03:39:33;23.90;50.30
13093;DHT22;6612;49.568;11.000;2022-07-01T03:42:00;23.90;50.60
13093;DHT22;6612;49.568;11.000;2022-07-01T03:44:27;23.90;50.50
13093;DHT22;6612;49.568;11.000;2022-07-01T03:46:54;23.90;50.50
13093;DHT22;6612;49.568;11.000;2022-07-01T03:49:21;23.90;50.60
13093;DHT22;6612;49.568;11.000;2022-07-01T03:51:49;23.80;50.60
13093;DHT22;6612;49.568;11.000;2022-07-01T03:54:17;23.80;50.60
13093;DHT22;6612;49.568;11.000;2022-07-01T03:56:56;23.80;50.70
13093;DHT22;6612;49.568;11.000;2022-07-01T03:59:23;23.80;50.70
13093;DHT22;6612;49.568;11.000;2022-07-01T04:01:51;23.80;50.70
13093;DHT22;6612;49.568;11.000;2022-07-01T04:04:17;23.80;50.80
13093;DHT22;6612;49.568;11.000;2022-07-01T04:06:45;23.70;50.90
13093;DHT22;6612;49.568;11.000;2022-07-01T04:09:15;23.70;51.10
13093;DHT22;6612;49.568;11.000;2022-07-01T04:11:42;23.70;51.30
13093;DHT22;6612;49.568;11.000;2022-07-01T04:14:12;23.70;51.30
13093;DHT22;6612;49.568;11.000;2022-07-01T04:16:40;23.60;51.40
13093;DHT22;6612;49.568;11.000;2022-07-01T04:19:07;23.60;51.40
13093;DHT22;6612;49.568;11.000;2022-07-01T04:21:35;23.60;51.70
13093;DHT22;6612;49.568;11.000;2022-07-01T04:24:19;23.60;51.70
13093;DHT22;6612;49.568;11.000;2022-07-01T04:26:48;23.60;51.80
13093;DHT22;6612;49.568;11.000;2022-07-01T04:29:17;23.50;51.90
13093;DHT22;6612;49.568;11.000;2022-07-01T04:31:44;23.50;52.20
13093;DHT22;6612;49.568;11.000;2022-07-01T04:34:12;23.50;52.30
13093;DHT22;6612;49.568;11.000;2022-07-01T04:36:39;23.40;52.40
13093;DHT22;6612;49.568;11.000;2022-07-01T04:39:06;23.40;52.70
13093;DHT22;6612;49.568;11.000;2022-07-01T04:41:33;23.40;53.00
13093;DHT22;6612;49.568;11.000;2022-07-01T04:44:20;23.30;53.10
13093;DHT22;6612;49.568;11.000;2022-07-01T04:46:47;23.30;53.60
13093;DHT22;6612;49.568;11.000;2022-07-01T04:49:13;23.20;53.50
13093;DHT22;6612;49.568;11.000;2022-07-01T04:51:41;23.20;54.00
13093;DHT22;6612;49.568;11.000;2022-07-01T04:54:08;23.10;54.40
13093;DHT22;6612;49.568;11.000;2022-07-01T04:56:37;23.00;54.60
13093;DHT22;6612;49.568;11.000;2022-07-01T04:59:04;23.00;54.90
13093;DHT22;6612;49.568;11.000;2022-07-01T05:01:33;22.90;54.90
13093;DHT22;6612;49.568;11.000;2022-07-01T05:04:00;22.90;55.30
13093;DHT22;6612;49.568;11.000;2022-07-01T05:06:27;22.80;55.30
13093;DHT22;6612;49.568;11.000;2022-07-01T05:08:54;22.80;55.60
13093;DHT22;6612;49.568;11.000;2022-07-01T05:11:21;22.80;55.80
13093;DHT22;6612;49.568;11.000;2022-07-01T05:13:48;22.80;56.00
13093;DHT22;6612;49.568;11.000;2022-07-01T05:16:15;22.80;56.10
13093;DHT22;6612;49.568;11.000;2022-07-01T05:18:43;22.70;56.10
13093;DHT22;6612;49.568;11.000;2022-07-01T05:21:25;22.70;56.50
13093;DHT22;6612;49.568;11.000;2022-07-01T05:24:09;22.70;56.30
13093;DHT22;6612;49.568;11.000;2022-07-01T05:26:37;22.70;56.20
13093;DHT22;6612;49.568;11.000;2022-07-01T05:29:04;22.70;56.40
13093;DHT22;6612;49.568;11.000;2022-07-01T05:31:31;22.70;56.30
13093;DHT22;6612;49.568;11.000;2022-07-01T05:34:00;22.70;56.40
13093;DHT22;6612;49.568;11.000;2022-07-01T05:36:27;22.70;56.60
13093;DHT22;6612;49.568;11.000;2022-07-01T05:38:54;22.70;56.40
13093;DHT22;6612;49.568;11.000;2022-07-01T05:41:21;22.70;56.50
13093;DHT22;6612;49.568;11.000;2022-07-01T05:43:48;22.70;56.50
13093;DHT22;6612;49.568;11.000;2022-07-01T05:46:15;22.70;56.50
13093;DHT22;6612;49.568;11.000;2022-07-01T05:48:42;22.70;56.50
13093;DHT22;6612;49.568;11.000;2022-07-01T05:51:10;22.70;56.40
13093;DHT22;6612;49.568;11.000;2022-07-01T05:53:37;22.70;56.20
13093;DHT22;6612;49.568;11.000;2022-07-01T05:56:05;22.70;56.10
13093;DHT22;6612;49.568;11.000;2022-07-01T05:58:31;22.70;56.20
13093;DHT22;6612;49.568;11.000;2022-07-01T06:00:58;22.70;56.10
13093;DHT22;6612;49.568;11.000;2022-07-01T06:03:25;22.70;56.20
13093;DHT22;6612;49.568;11.000;2022-07-01T06:05:53;22.60;56.10
13093;DHT22;6612;49.568;11.000;2022-07-01T06:08:21;22.60;55.90
13093;DHT22;6612;49.568;11.000;2022-07-01T06:10:48;22.60;56.00
13093;DHT22;6612;49.568;11.000;2022-07-01T06:13:15;22.60;56.00
13093;DHT22;6612;49.568;11.000;2022-07-01T06:15:42;22.60;55.90
13093;DHT22;6612;49.568;11.000;2022-07-01T06:18:09;22.60;55.90
13093;DHT22;6612;49.568;11.000;2022-07-01T06:20:36;22.60;55.90
13093;DHT22;6612;49.568;11.000;2022-07-01T06:23:03;22.50;56.00
13093;DHT22;6612;49.568;11.000;2022-07-01T06:25:31;22.50;56.00
13093;DHT22;6612;49.568;11.000;2022-07-01T06:27:58;22.50;56.20
13093;DHT22;6612;49.568;11.000;2022-07-01T06:30:25;22.50;56.30
13093;DHT22;6612;49.568;11.000;2022-07-01T06:32:52;22.50;56.40
13093;DHT22;6612;49.568;11.000;2022-07-01T06:35:19;22.60;56.40
13093;DHT22;6612;49.568;11.000;2022-07-01T06:37:46;22.60;56.60
13093;DHT22;6612;49.568;11.000;2022-07-01T06:40:13;22.60;56.50
13093;DHT22;6612;49.568;11.000;2022-07-01T06:42:41;22.60;56.10
13093;DHT22;6612;49.568;11.000;2022-07-01T06:45:09;22.60;56.10
13093;DHT22;6612;49.568;11.000;2022-07-01T06:47:36;22.60;56.00
13093;DHT22;6612;49.568;11.000;2022-07-01T06:50:04;22.60;56.00
13093;DHT22;6612;49.568;11.000;2022-07-01T06:52:31;22.60;55.70
13093;DHT22;6612;49.568;11.000;2022-07-01T06:54:58;22.60;55.70
13093;DHT22;6612;49.568;11.000;2022-07-01T06:57:26;22.60;55.70
13093;DHT22;6612;49.568;11.000;2022-07-01T06:59:55;22.60;55.70
13093;DHT22;6612;49.568;11.000;2022-07-01T07:02:22;22.60;55.90
13093;DHT22;6612;49.568;11.000;2022-07-01T07:04:49;22.50;55.70
13093;DHT22;6612;49.568;11.000;2022-07-01T07:07:15;22.50;55.70
13093;DHT22;6612;49.568;11.000;2022-07-01T07:09:42;22.50;55.90
13093;DHT22;6612;49.568;11.000;2022-07-01T07:12:10;22.50;55.90
13093;DHT22;6612;49.568;11.000;2022-07-01T07:14:36;22.50;55.90
13093;DHT22;6612;49.568;11.000;2022-07-01T07:17:05;22.40;55.80
13093;DHT22;6612;49.568;11.000;2022-07-01T07:19:32;22.40;55.80
13093;DHT22;6612;49.568;11.000;2022-07-01T07:22:01;22.40;55.90
13093;DHT22;6612;49.568;11.000;2022-07-01T07:24:30;22.40;56.20
13093;DHT22;6612;49.568;11.000;2022-07-01T07:26:57;22.40;56.40
13093;DHT22;6612;49.568;11.000;2022-07-01T07:29:25;22.40;56.50
13093;DHT22;6612;49.568;11.000;2022-07-01T07:31:51;22.40;56.50
13093;DHT22;6612;49.568;11.000;2022-07-01T07:34:20;22.50;57.30
13093;DHT22;6612;49.568;11.000;2022-07-01T07:36:47;22.50;56.60
13093;DHT22;6612;49.568;11.000;2022-07-01T07:39:14;22.50;56.30
13093;DHT22;6612;49.568;11.000;2022-07-01T07:41:41;22.50;56.20
13093;DHT22;6612;49.568;11.000;2022-07-01T07:44:08;22.50;56.20
13093;DHT22;6612;49.568;11.000;2022-07-01T07:46:34;22.50;56.20
13093;DHT22;6612;49.568;11.000;2022-07-01T07:49:01;22.50;56.10
13093;DHT22;6612;49.568;11.000;2022-07-01T07:51:30;22.40;56.00
13093;DHT22;6612;49.568;11.000;2022-07-01T07:53:57;22.40;56.20
13093;DHT22;6612;49.568;11.000;2022-07-01T07:56:24;22.40;56.00
13093;DHT22;6612;49.568;11.000;2022-07-01T07:58:51;22.40;55.90
13093;DHT22;6612;49.568;11.000;2022-07-01T08:01:17;22.40;56.00
13093;DHT22;6612;49.568;11.000;2022-07-01T08:03:44;22.40;56.10
13093;DHT22;6612;49.568;11.000;2022-07-01T08:06:11;22.30;56.00
13093;DHT22;6612;49.568;11.000;2022-07-01T08:08:40;22.30;56.10
13093;DHT22;6612;49.568;11.000;2022-07-01T08:11:07;22.40;56.20
13093;DHT22;6612;49.568;11.000;2022-07-01T08:13:34;22.30;56.20
13093;DHT22;6612;49.568;11.000;2022-07-01T08:16:01;22.30;56.30
13093;DHT22;6612;49.568;11.000;2022-07-01T08:18:28;22.30;56.10
13093;DHT22;6612;49.568;11.000;2022-07-01T08:20:55;22.30;56.00
13093;DHT22;6612;49.568;11.000;2022-07-01T08:23:22;22.30;55.90
13093;DHT22;6612;49.568;11.000;2022-07-01T08:25:51;22.40;55.80
13093;DHT22;6612;49.568;11.000;2022-07-01T08:28:18;22.40;55.90
13093;DHT22;6612;49.568;11.000;2022-07-01T08:30:45;22.40;56.10
13093;DHT22;6612;49.568;11.000;2022-07-01T08:33:12;22.40;56.00
13093;DHT22;6612;49.568;11.000;2022-07-01T08:35:39;22.40;56.10
13093;DHT22;6612;49.568;11.000;2022-07-01T08:38:06;22.40;55.80
13093;DHT22;6612;49.568;11.000;2022-07-01T08:40:34;22.40;55.90
13093;DHT22;6612;49.568;11.000;2022-07-01T08:43:04;22.40;55.90
13093;DHT22;6612;49.568;11.000;2022-07-01T08:45:33;22.40;56.10
13093;DHT22;6612;49.568;11.000;2022-07-01T08:48:02;22.40;56.10
13093;DHT22;6612;49.568;11.000;2022-07-01T08:50:30;22.50;56.20
13093;DHT22;6612;49.568;11.000;2022-07-01T08:52:58;22.50;56.30
13093;DHT22;6612;49.568;11.000;2022-07-01T08:55:25;22.50;56.40
13093;DHT22;6612;49.568;11.000;2022-07-01T08:57:52;22.60;56.30
13093;DHT22;6612;49.568;11.000;2022-07-01T09:00:21;22.60;56.00
13093;DHT22;6612;49.568;11.000;2022-07-01T09:02:55;22.60;56.10
13093;DHT22;6612;49.568;11.000;2022-07-01T09:05:25;22.70;56.20
13093;DHT22;6612;49.568;11.000;2022-07-01T09:07:56;22.70;56.00
13093;DHT22;6612;49.568;11.000;2022-07-01T09:10:24;22.70;56.00
13093;DHT22;6612;49.568;11.000;2022-07-01T09:12:51;22.70;56.00
13093;DHT22;6612;49.568;11.000;2022-07-01T09:15:26;22.70;55.90
13093;DHT22;6612;49.568;11.000;2022-07-01T09:17:54;22.70;56.10
13093;DHT22;6612;49.568;11.000;2022-07-01T09:20:27;22.70;55.80
13093;DHT22;6612;49.568;11.000;2022-07-01T09:23:02;22.70;55.80
13093;DHT22;6612;49.568;11.000;2022-07-01T09:25:31;22.70;55.60
13093;DHT22;6612;49.568;11.000;2022-07-01T09:28:05;22.60;55.30
13093;DHT22;6612;49.568;11.000;2022-07-01T09:30:34;22.60;55.60
13093;DHT22;6612;49.568;11.000;2022-07-01T09:33:10;22.60;55.40
13093;DHT22;6612;49.568;11.000;2022-07-01T09:35:38;22.60;55.60
13093;DHT22;6612;49.568;11.000;2022-07-01T09:38:06;22.50;55.40
13093;DHT22;6612;49.568;11.000;2022-07-01T09:40:52;22.40;55.50
13093;DHT22;6612;49.568;11.000;2022-07-01T09:43:21;22.50;56.20
13093;DHT22;6612;49.568;11.000;2022-07-01T09:45:57;22.40;55.70
13093;DHT22;6612;49.568;11.000;2022-07-01T09:48:25;22.40;56.00
13093;DHT22;6612;49.568;11.000;2022-07-01T09:50:53;22.40;55.80
13093;DHT22;6612;49.568;11.000;2022-07-01T09:53:20;22.40;55.80
13093;DHT22;6612;49.568;11.000;2022-07-01T09:55:47;22.40;56.00
13093;DHT22;6612;49.568;11.000;2022-07-01T09:58:15;22.40;56.00
13093;DHT22;6612;49.568;11.000;2022-07-01T10:00:43;22.50;56.30
13093;DHT22;6612;49.568;11.000;2022-07-01T10:03:12;22.50;56.50
13093;DHT22;6612;49.568;11.000;2022-07-01T10:05:45;22.50;56.80
13093;DHT22;6612;49.568;11.000;2022-07-01T10:08:46;22.60;57.10
13093;DHT22;6612;49.568;11.000;2022-07-01T10:11:47;22.80;57.30
13093;DHT22;6612;49.568;11.000;2022-07-01T10:14:19;22.90;56.90
13093;DHT22;6612;49.568;11.000;2022-07-01T10:16:47;23.00;56.50
13093;DHT22;6612;49.568;11.000;2022-07-01T10:19:27;23.00;56.20
13093;DHT22;6612;49.568;11.000;2022-07-01T10:21:56;23.10;56.50
13093;DHT22;6612;49.568;11.000;2022-07-01T10:24:25;23.10;56.20
13093;DHT22;6612;49.568;11.000;2022-07-01T10:26:58;23.20;56.10
13093;DHT22;6612;49.568;11.000;2022-07-01T10:29:29;23.30;56.20
13093;DHT22;6612;49.568;11.000;2022-07-01T10:32:02;23.40;56.00
13093;DHT22;6612;49.568;11.000;2022-07-01T10:34:38;23.40;55.60
13093;DHT22;6612;49.568;11.000;2022-07-01T10:37:07;23.40;55.40
13093;DHT22;6612;49.568;11.000;2022-07-01T10:39:56;23.40;55.30
13093;DHT22;6612;49.568;11.000;2022-07-01T10:42:31;23.40;55.40
13093;DHT22;6612;49.568;11.000;2022-07-01T10:45:04;23.30;54.80
13093;DHT22;6612;49.568;11.000;2022-07-01T10:47:31;23.30;55.00
13093;DHT22;6612;49.568;11.000;2022-07-01T10:50:04;23.30;54.90
13093;DHT22;6612;49.568;11.000;2022-07-01T10:52:31;23.20;55.10
13093;DHT22;6612;49.568;11.000;2022-07-01T10:54:59;23.20;55.00
13093;DHT22;6612;49.568;11.000;2022-07-01T10:57:31;23.10;54.80
13093;DHT22;6612;49.568;11.000;2022-07-01T11:00:29;23.10;54.90
13093;DHT22;6612;49.568;11.000;2022-07-01T11:03:17;23.10;55.10
13093;DHT22;6612;49.568;11.000;2022-07-01T11:05:47;23.00;54.90
13093;DHT22;6612;49.568;11.000;2022-07-01T11:08:15;22.90;54.50
13093;DHT22;6612;49.568;11.000;2022-07-01T11:10:42;22.80;54.60
13093;DHT22;6612;49.568;11.000;2022-07-01T11:13:13;22.70;54.70
13093;DHT22;6612;49.568;11.000;2022-07-01T11:15:42;22.70;54.80
13093;DHT22;6612;49.568;11.000;2022-07-01T11:18:09;22.60;54.50
13093;DHT22;6612;49.568;11.000;2022-07-01T11:20:36;22.60;54.60
13093;DHT22;6612;49.568;11.000;2022-07-01T11:23:04;22.50;54.60
13093;DHT22;6612;49.568;11.000;2022-07-01T11:25:32;22.40;54.70
13093;DHT22;6612;49.568;11.000;2022-07-01T11:27:59;22.30;54.90
13093;DHT22;6612;49.568;11.000;2022-07-01T11:30:26;22.30;55.10
13093;DHT22;6612;49.568;11.000;2022-07-01T11:32:54;22.20;55.10
13093;DHT22;6612;49.568;11.000;2022-07-01T11:35:24;22.20;55.30
13093;DHT22;6612;49.568;11.000;2022-07-01T11:38:12;22.10;55.30
13093;DHT22;6612;49.568;11.000;2022-07-01T11:40:57;22.10;55.70
13093;DHT22;6612;49.568;11.000;2022-07-01T11:43:26;22.10;55.90
13093;DHT22;6612;49.568;11.000;2022-07-01T11:45:54;22.10;56.10
13093;DHT22;6612;49.568;11.000;2022-07-01T11:48:36;22.10;56.40
13093;DHT22;6612;49.568;11.000;2022-07-01T11:51:08;22.10;56.90
13093;DHT22;6612;49.568;11.000;2022-07-01T11:53:37;22.10;56.90
13093;DHT22;6612;49.568;11.000;2022-07-01T11:56:04;22.20;56.80
13093;DHT22;6612;49.568;11.000;2022-07-01T11:58:42;22.20;56.80
13093;DHT22;6612;49.568;11.000;2022-07-01T12:01:09;22.30;57.40
13093;DHT22;6612;49.568;11.000;2022-07-01T12:03:36;22.30;56.80
13093;DHT22;6612;49.568;11.000;2022-07-01T12:06:04;22.40;56.90
13093;DHT22;6612;49.568;11.000;2022-07-01T12:08:31;22.40;56.80
13093;DHT22;6612;49.568;11.000;2022-07-01T12:11:00;22.40;56.60
13093;DHT22;6612;49.568;11.000;2022-07-01T12:13:27;22.40;56.50
13093;DHT22;6612;49.568;11.000;2022-07-01T12:15:54;22.40;56.30
13093;DHT22;6612;49.568;11.000;2022-07-01T12:18:31;22.40;56.20
13093;DHT22;6612;49.568;11.000;2022-07-01T12:20:58;22.40;56.10
13093;DHT22;6612;49.568;11.000;2022-07-01T12:23:25;22.40;56.20
13093;DHT22;6612;49.568;11.000;2022-07-01T12:25:52;22.40;56.20
13093;DHT22;6612;49.568;11.000;2022-07-01T12:28:29;22.40;56.10
13093;DHT22;6612;49.568;11.000;2022-07-01T12:31:05;22.40;56.20
13093;DHT22;6612;49.568;11.000;2022-07-01T12:33:37;22.40;56.40
13093;DHT22;6612;49.568;11.000;2022-07-01T12:36:06;22.40;56.20
13093;DHT22;6612;49.568;11.000;2022-07-01T12:38:33;22.40;55.90
13093;DHT22;6612;49.568;11.000;2022-07-01T12:41:00;22.40;55.90
13093;DHT22;6612;49.568;11.000;2022-07-01T12:43:30;22.30;55.80
13093;DHT22;6612;49.568;11.000;2022-07-01T12:46:01;22.30;56.30
13093;DHT22;6612;49.568;11.000;2022-07-01T12:48:28;22.30;56.30
13093;DHT22;6612;49.568;11.000;2022-07-01T12:50:57;22.30;56.20
13093;DHT22;6612;49.568;11.000;2022-07-01T12:53:26;22.30;56.20
13093;DHT22;6612;49.568;11.000;2022-07-01T12:55:56;22.30;56.20
13093;DHT22;6612;49.568;11.000;2022-07-01T12:58:24;22.30;56.10
13093;DHT22;6612;49.568;11.000;2022-07-01T13:00:54;22.30;56.00
13093;DHT22;6612;49.568;11.000;2022-07-01T13:03:24;22.30;55.80
13093;DHT22;6612;49.568;11.000;2022-07-01T13:05:52;22.20;55.60
13093;DHT22;6612;49.568;11.000;2022-07-01T13:08:20;22.20;55.70
13093;DHT22;6612;49.568;11.000;2022-07-01T13:10:47;22.10;55.60
13093;DHT22;6612;49.568;11.000;2022-07-01T13:13:15;22.10;55.80
13093;DHT22;6612;49.568;11.000;2022-07-01T13:15:43;22.10;55.90
13093;DHT22;6612;49.568;11.000;2022-07-01T13:18:12;22.00;55.70
13093;DHT22;6612;49.568;11.000;2022-07-01T13:20:40;22.00;55.80
13093;DHT22;6612;49.568;11.000;2022-07-01T13:23:07;21.90;55.70
13093;DHT22;6612;49.568;11.000;2022-07-01T13:25:34;21.90;55.80
13093;DHT22;6612;49.568;11.000;2022-07-01T13:28:02;21.80;55.90
13093;DHT22;6612;49.568;11.000;2022-07-01T13:30:29;21.70;55.90
13093;DHT22;6612;49.568;11.000;2022-07-01T13:32:56;21.70;55.90
13093;DHT22;6612;49.568;11.000;2022-07-01T13:35:25;21.70;56.10
13093;DHT22;6612;49.568;11.000;2022-07-01T13:37:52;21.60;56.30
13093;DHT22;6612;49.568;11.000;2022-07-01T13:40:20;21.60;56.50
13093;DHT22;6612;49.568;11.000;2022-07-01T13:42:48;21.60;56.60
13093;DHT22;6612;49.568;11.000;2022-07-01T13:45:15;21.60;56.90
13093;DHT22;6612;49.568;11.000;2022-07-01T13:47:42;21.60;57.00
13093;DHT22;6612;49.568;11.000;2022-07-01T13:50:09;21.60;57.10
13093;DHT22;6612;49.568;11.000;2022-07-01T13:52:39;21.60;57.10
13093;DHT22;6612;49.568;11.000;2022-07-01T13:55:07;21.60;57.00
13093;DHT22;6612;49.568;11.000;2022-07-01T13:57:34;21.60;56.80
13093;DHT22;6612;49.568;11.000;2022-07-01T14:00:01;21.70;57.00
13093;DHT22;6612;49.568;11.000;2022-07-01T14:02:28;21.70;56.90
13093;DHT22;6612;49.568;11.000;2022-07-01T14:04:56;21.70;56.90
13093;DHT22;6612;49.568;11.000;2022-07-01T14:07:23;21.80;57.20
13093;DHT22;6612;49.568;11.000;2022-07-01T14:09:51;21.80;57.20
13093;DHT22;6612;49.568;11.000;2022-07-01T14:12:18;21.90;57.30
13093;DHT22;6612;49.568;11.000;2022-07-01T14:14:45;22.00;57.70
13093;DHT22;6612;49.568;11.000;2022-07-01T14:17:13;22.10;57.60
13093;DHT22;6612;49.568;11.000;2022-07-01T14:19:40;22.20;57.60
13093;DHT22;6612;49.568;11.000;2022-07-01T14:22:07;22.30;57.30
13093;DHT22;6612;49.568;11.000;2022-07-01T14:24:34;22.40;57.00
13093;DHT22;6612;49.568;11.000;2022-07-01T14:27:02;22.50;56.60
13093;DHT22;6612;49.568;11.000;2022-07-01T14:29:29;22.50;56.20
13093;DHT22;6612;49.568;11.000;2022-07-01T14:31:56;22.50;55.80
13093;DHT22;6612;49.568;11.000;2022-07-01T14:34:25;22.60;55.50
13093;DHT22;6612;49.568;11.000;2022-07-01T14:36:52;22.50;55.50
13093;DHT22;6612;49.568;11.000;2022-07-01T14:39:18;22.50;55.30
13093;DHT22;6612;49.568;11.000;2022-07-01T14:41:45;22.50;55.50
13093;DHT22;6612;49.568;11.000;2022-07-01T14:44:16;22.50;55.80
13093;DHT22;6612;49.568;11.000;2022-07-01T14:46:43;22.50;56.30
13093;DHT22;6612;49.568;11.000;2022-07-01T14:49:10;22.50;56.50
13093;DHT22;6612;49.568;11.000;2022-07-01T14:51:40;22.50;56.40
13093;DHT22;6612;49.568;11.000;2022-07-01T14:54:06;22.60;56.70
13093;DHT22;6612;49.568;11.000;2022-07-01T14:56:33;22.70;56.50
13093;DHT22;6612;49.568;11.000;2022-07-01T14:59:00;22.80;56.40
13093;DHT22;6612;49.568;11.000;2022-07-01T15:01:29;22.80;55.90
13093;DHT22;6612;49.568;11.000;2022-07-01T15:03:55;22.90;55.60
13093;DHT22;6612;49.568;11.000;2022-07-01T15:06:22;22.90;55.80
13093;DHT22;6612;49.568;11.000;2022-07-01T15:08:49;23.00;55.70
13093;DHT22;6612;49.568;11.000;2022-07-01T15:11:16;23.00;55.70
13093;DHT22;6612;49.568;11.000;2022-07-01T15:13:43;23.00;55.80
13093;DHT22;6612;49.568;11.000;2022-07-01T15:16:10;23.10;55.80
13093;DHT22;6612;49.568;11.000;2022-07-01T15:18:38;23.20;55.60
13093;DHT22;6612;49.568;11.000;2022-07-01T15:21:05;23.20;55.40
13093;DHT22;6612;49.568;11.000;2022-07-01T15:23:32;23.20;55.20
13093;DHT22;6612;49.568;11.000;2022-07-01T15:25:59;23.30;55.30
13093;DHT22;6612;49.568;11.000;2022-07-01T15:28:26;23.30;55.30
13093;DHT22;6612;49.568;11.000;2022-07-01T15:30:53;23.30;54.80
13093;DHT22;6612;49.568;11.000;2022-07-01T15:33:20;23.30;54.60
13093;DHT22;6612;49.568;11.000;2022-07-01T15:35:48;23.30;54.30
13093;DHT22;6612;49.568;11.000;2022-07-01T15:38:15;23.30;54.20